Mc Henry, Kentucky
Current Conditions -  °F | °C
As of 3:55 AM on Monday 22 Dec 2014 (Local Time) from K2I0 Reporting Station
Overcast Overcast  
Wind Chill: 39°   Ceiling: 1300
Heat Index: 39°   Visibility: 10mi
Dew Point: 34°   Wind: 0mph
Humidity: 82%   Direction: NA
Pressure: 29.95"   Gusts: NA
Location:  37.3808°N, 86.9237°W
Report Text: K2I0 220955Z AUTO 00000KT 10SM OVC013 04/01 A2995 RMK AO2 T00380009
Loading
Personal Weather Stations






























Interactive Weather Map New forecast layout! Learn more

10-Day Weather Forecast

Advertisements
Track Severe Weather on mobile